Main page
METAR-TAF:

METAR-TAF

Airports :

Luton Airport

Luton, England

latitude: 51-52N, longitude: 000-22W, elevation: 160 m

Current weather observation

The report was made 29 minutes ago, at 19:20 UTC
Wind 15 kt from the West
Temperature 6°C
Humidity 93%
Pressure 1022 hPa
Visibility 10 km or more

METAR: EGGW 291920Z AUTO 26015KT 9999 NCD 06/05 Q1022

Time: 19:49 (19:49 UTC)

Forecast

The report was made 1 hour and 38 minutes ago, at 18:11 UTC
Forecast valid from 29 at 18 UTC to 30 at 18 UTC
Wind 13 kt from the West/Southwest
Visibility 10 km or more
Scattered clouds at a height of 2500 ft
Temporary
from 29 at 18 UTC to 30 at 04 UTC
Broken clouds at a height of 1200 ft
Probability 40% :
Temporary
from 30 at 00 UTC to 30 at 04 UTC
Visibility: 7000 m
Broken clouds at a height of 700 ft
light rain
Becoming
from 30 at 04 UTC to 30 at 06 UTC
Wind 13 kt from the Northwest

TAF: EGGW 291811Z 2918/3018 25013KT 9999 SCT025 TEMPO 2918/3004 BKN012 PROB40 TEMPO 3000/3004 7000 -RA BKN007 BECMG 3004/3006 31013KT

Weather observations and forecasts of more than 4000 airports (METAR and TAF reports).

The available stations are represented by yellow and red dots on the map.

Hover mouse over dot to see the name of the station.

Then click to see weather observations and forecasts.

To change the map : click on the green buttons with a black cross to zoom in, on the green button with a dash to zoom out, or on the green arrows for adjacent maps.


METAR-TAF: